createdAt,value
2018-11-26T00:00:35.628Z,100472.00
2018-11-26T00:03:08.506Z,100470.00
2018-11-26T00:05:38.742Z,100464.00
2018-11-26T00:08:09.674Z,100465.00
2018-11-26T00:11:48.377Z,100465.00
2018-11-26T00:14:18.017Z,100458.00
2018-11-26T00:16:47.745Z,100459.00
2018-11-26T00:19:17.928Z,100456.00
2018-11-26T00:21:48.721Z,100460.00
2018-11-26T00:24:18.791Z,100454.00
2018-11-26T00:26:48.567Z,100458.00
2018-11-26T00:29:17.983Z,100463.00
2018-11-26T00:31:47.979Z,100466.00
2018-11-26T00:34:17.484Z,100460.00
2018-11-26T00:36:46.938Z,100464.00
2018-11-26T00:39:16.255Z,100457.00
2018-11-26T00:41:45.533Z,100468.00
2018-11-26T00:44:15.449Z,100460.00
2018-11-26T00:46:45.235Z,100462.00
2018-11-26T00:49:15.164Z,100453.00
2018-11-26T00:51:44.492Z,100455.00
2018-11-26T00:54:13.909Z,100457.00
2018-11-26T00:56:43.387Z,100460.00
2018-11-26T00:59:12.800Z,100458.00
2018-11-26T01:01:42.125Z,100463.00
2018-11-26T01:04:11.376Z,100450.00
2018-11-26T01:06:40.927Z,100452.00
2018-11-26T01:09:10.204Z,100452.00
2018-11-26T01:11:39.581Z,100450.00
2018-11-26T01:14:08.803Z,100447.00
2018-11-26T01:16:37.929Z,100445.00
2018-11-26T01:19:07.207Z,100455.00
2018-11-26T01:21:36.498Z,100449.00
2018-11-26T01:24:05.935Z,100455.00
2018-11-26T01:26:35.157Z,100451.00
2018-11-26T01:29:04.472Z,100457.00
2018-11-26T01:31:33.845Z,100448.00
2018-11-26T01:34:03.036Z,100453.00
2018-11-26T01:36:32.298Z,100445.00
2018-11-26T01:39:01.518Z,100456.00
2018-11-26T01:41:30.653Z,100450.00
2018-11-26T01:43:59.921Z,100465.00
2018-11-26T01:46:29.252Z,100463.00
2018-11-26T01:48:58.493Z,100455.00
2018-11-26T01:51:27.709Z,100457.00
2018-11-26T01:53:57.142Z,100469.00
2018-11-26T01:56:26.360Z,100462.00
2018-11-26T01:58:55.611Z,100467.00
2018-11-26T02:01:24.843Z,100462.00
2018-11-26T02:03:54.158Z,100458.00
2018-11-26T02:06:23.365Z,100443.00
2018-11-26T02:08:52.711Z,100448.00
2018-11-26T02:11:22.063Z,100458.00
2018-11-26T02:13:51.353Z,100453.00
2018-11-26T02:16:20.595Z,100446.00
2018-11-26T02:18:49.863Z,100459.00
2018-11-26T02:21:19.047Z,100445.00
2018-11-26T02:23:48.264Z,100443.00
2018-11-26T02:26:17.568Z,100441.00
2018-11-26T02:28:46.732Z,100442.00
2018-11-26T02:31:15.940Z,100445.00
2018-11-26T02:33:45.451Z,100453.00
2018-11-26T02:36:14.888Z,100442.00
2018-11-26T02:38:44.070Z,100451.00
2018-11-26T02:41:13.294Z,100447.00
2018-11-26T02:43:42.596Z,100447.00
2018-11-26T02:46:12.196Z,100442.00
2018-11-26T02:48:41.336Z,100446.00
2018-11-26T02:51:10.547Z,100444.00
2018-11-26T02:53:39.814Z,100435.00
2018-11-26T02:56:08.998Z,100447.00
2018-11-26T02:58:38.165Z,100444.00
2018-11-26T03:01:07.499Z,100442.00
2018-11-26T03:03:36.654Z,100442.00
2018-11-26T03:06:06.200Z,100441.00
2018-11-26T03:08:35.452Z,100421.00
2018-11-26T03:11:04.859Z,100439.00
2018-11-26T03:13:34.240Z,100430.00
2018-11-26T03:16:03.493Z,100440.00
2018-11-26T03:18:32.659Z,100444.00
2018-11-26T03:21:01.887Z,100448.00
2018-11-26T03:23:31.211Z,100439.00
2018-11-26T03:26:00.308Z,100446.00
2018-11-26T03:28:29.454Z,100438.00
2018-11-26T03:30:58.627Z,100441.00
2018-11-26T03:33:27.803Z,100461.00
2018-11-26T03:35:57.010Z,100451.00
2018-11-26T03:39:06.988Z,100447.00
2018-11-26T03:41:36.246Z,100446.00
2018-11-26T03:44:05.484Z,100453.00
2018-11-26T03:46:35.012Z,100452.00
2018-11-26T03:49:04.136Z,100443.00
2018-11-26T03:51:33.288Z,100448.00
2018-11-26T03:54:02.418Z,100443.00
2018-11-26T03:56:31.773Z,100447.00
2018-11-26T03:59:00.919Z,100446.00
2018-11-26T04:01:30.114Z,100464.00
2018-11-26T04:03:59.400Z,100452.00
2018-11-26T04:06:28.566Z,100450.00
2018-11-26T04:08:57.954Z,100454.00
2018-11-26T04:11:27.057Z,100453.00
2018-11-26T04:13:56.357Z,100451.00
2018-11-26T04:16:25.494Z,100461.00
2018-11-26T04:18:54.738Z,100455.00
2018-11-26T04:21:23.874Z,100456.00
2018-11-26T04:23:53.021Z,100466.00
2018-11-26T04:26:22.466Z,100459.00
2018-11-26T04:28:51.692Z,100462.00
2018-11-26T04:31:20.828Z,100456.00
2018-11-26T04:33:50.282Z,100465.00
2018-11-26T04:36:19.518Z,100461.00
2018-11-26T04:38:48.896Z,100461.00
2018-11-26T04:41:18.063Z,100458.00
2018-11-26T04:43:47.989Z,100455.00
2018-11-26T04:46:17.518Z,100464.00
2018-11-26T04:48:47.045Z,100455.00
2018-11-26T04:51:16.250Z,100463.00
2018-11-26T04:53:45.942Z,100462.00
2018-11-26T04:56:15.208Z,100469.00
2018-11-26T04:58:44.312Z,100462.00
2018-11-26T05:01:13.545Z,100465.00
2018-11-26T05:03:42.761Z,100470.00
2018-11-26T05:06:12.002Z,100469.00
2018-11-26T05:08:41.650Z,100462.00
2018-11-26T05:11:10.799Z,100460.00
2018-11-26T05:13:40.145Z,100457.00
2018-11-26T05:16:09.378Z,100465.00
2018-11-26T05:18:38.580Z,100460.00
2018-11-26T05:21:07.817Z,100461.00
2018-11-26T05:23:37.013Z,100460.00
2018-11-26T05:26:06.655Z,100468.00
2018-11-26T05:28:35.867Z,100470.00
2018-11-26T05:31:06.237Z,100474.00
2018-11-26T05:33:34.979Z,100471.00
2018-11-26T05:36:04.211Z,100480.00
2018-11-26T05:38:33.527Z,100476.00
2018-11-26T05:41:02.822Z,100477.00
2018-11-26T05:43:32.047Z,100468.00
2018-11-26T05:46:01.433Z,100481.00
2018-11-26T05:48:30.742Z,100490.00
2018-11-26T05:50:59.899Z,100481.00
2018-11-26T05:53:28.988Z,100493.00
2018-11-26T05:55:58.113Z,100488.00
2018-11-26T05:58:27.290Z,100483.00
2018-11-26T06:00:56.481Z,100490.00
2018-11-26T06:03:25.929Z,100493.00
2018-11-26T06:05:55.124Z,100497.00
2018-11-26T06:08:24.179Z,100499.00
2018-11-26T06:10:53.411Z,100504.00
2018-11-26T06:13:22.608Z,100497.00
2018-11-26T06:15:51.717Z,100502.00
2018-11-26T06:18:20.825Z,100501.00
2018-11-26T06:20:50.011Z,100511.00
2018-11-26T06:23:19.062Z,100516.00
2018-11-26T06:25:48.134Z,100509.00
2018-11-26T06:28:17.430Z,100524.00
2018-11-26T06:30:46.467Z,100519.00
2018-11-26T06:33:15.646Z,100511.00
2018-11-26T06:35:44.691Z,100515.00
2018-11-26T06:38:13.867Z,100511.00
2018-11-26T06:40:43.125Z,100512.00
2018-11-26T06:43:12.715Z,100519.00
2018-11-26T06:45:41.755Z,100517.00
2018-11-26T06:48:10.965Z,100514.00
2018-11-26T06:50:40.305Z,100520.00
2018-11-26T06:53:09.561Z,100527.00
2018-11-26T06:55:38.731Z,100529.00
2018-11-26T06:58:07.949Z,100534.00
2018-11-26T07:00:37.091Z,100529.00
2018-11-26T07:03:06.311Z,100536.00
2018-11-26T07:05:35.767Z,100535.00
2018-11-26T07:08:05.195Z,100547.00
2018-11-26T07:10:35.033Z,100546.00
2018-11-26T07:13:04.993Z,100554.00
2018-11-26T07:15:34.641Z,100545.00
2018-11-26T07:18:04.193Z,100536.00
2018-11-26T07:20:33.766Z,100548.00
2018-11-26T07:23:04.660Z,100539.00
2018-11-26T07:25:34.221Z,100535.00
2018-11-26T07:28:06.659Z,100555.00
2018-11-26T07:30:36.291Z,100535.00
2018-11-26T07:33:06.710Z,100546.00
2018-11-26T07:35:36.379Z,100547.00
2018-11-26T07:38:06.459Z,100559.00
2018-11-26T07:40:36.807Z,100554.00
2018-11-26T07:43:12.119Z,100545.00
2018-11-26T07:45:42.043Z,100549.00
2018-11-26T07:48:12.774Z,100552.00
2018-11-26T07:50:43.566Z,100558.00
2018-11-26T07:53:13.563Z,100555.00
2018-11-26T07:55:43.589Z,100556.00
2018-11-26T07:58:13.571Z,100562.00
2018-11-26T08:00:43.470Z,100556.00
2018-11-26T08:03:13.561Z,100560.00
2018-11-26T08:05:43.643Z,100572.00
2018-11-26T08:08:13.625Z,100576.00
2018-11-26T08:10:43.552Z,100568.00
2018-11-26T08:13:13.631Z,100593.00
2018-11-26T08:15:43.785Z,100577.00
2018-11-26T08:18:13.796Z,100583.00
2018-11-26T08:20:43.691Z,100592.00
2018-11-26T08:23:13.509Z,100602.00
2018-11-26T08:25:43.595Z,100593.00
2018-11-26T08:28:13.719Z,100615.00
2018-11-26T08:30:43.453Z,100609.00
2018-11-26T08:33:13.493Z,100603.00
2018-11-26T08:35:44.063Z,100599.00
2018-11-26T08:38:18.613Z,100609.00
2018-11-26T08:40:53.682Z,100599.00
2018-11-26T08:43:28.637Z,100607.00
2018-11-26T08:46:02.848Z,100609.00
2018-11-26T08:48:32.874Z,100608.00
2018-11-26T08:51:03.513Z,100609.00
2018-11-26T08:53:33.452Z,100610.00
2018-11-26T08:56:03.416Z,100622.00
2018-11-26T08:58:33.571Z,100616.00
2018-11-26T09:01:06.330Z,100607.00
2018-11-26T09:03:36.617Z,100616.00
2018-11-26T09:06:06.616Z,100616.00
2018-11-26T09:08:37.485Z,100605.00
2018-11-26T09:11:09.145Z,100610.00
2018-11-26T09:13:38.801Z,100601.00
2018-11-26T09:16:08.769Z,100608.00
2018-11-26T09:18:38.633Z,100597.00
2018-11-26T09:21:08.584Z,100596.00
2018-11-26T09:23:38.618Z,100608.00
2018-11-26T09:26:08.618Z,100610.00
2018-11-26T09:28:39.109Z,100616.00
2018-11-26T09:31:08.970Z,100617.00
2018-11-26T09:33:38.662Z,100611.00
2018-11-26T09:36:09.692Z,100613.00
2018-11-26T09:38:39.730Z,100616.00
2018-11-26T09:41:10.135Z,100611.00
2018-11-26T09:43:40.018Z,100623.00
2018-11-26T09:46:09.821Z,100618.00
2018-11-26T09:48:39.786Z,100608.00
2018-11-26T09:51:14.094Z,100624.00
2018-11-26T09:53:39.716Z,100623.00
2018-11-26T09:56:09.359Z,100637.00
2018-11-26T09:58:38.860Z,100631.00
2018-11-26T10:01:08.906Z,100642.00
2018-11-26T10:03:38.828Z,100643.00
2018-11-26T10:06:08.663Z,100647.00
2018-11-26T10:08:38.489Z,100643.00
2018-11-26T10:11:08.560Z,100647.00
2018-11-26T10:13:38.626Z,100638.00
2018-11-26T10:16:08.531Z,100641.00
2018-11-26T10:18:38.514Z,100635.00
2018-11-26T10:21:08.212Z,100633.00
2018-11-26T10:23:37.983Z,100638.00
2018-11-26T10:26:07.720Z,100636.00
2018-11-26T10:28:37.374Z,100632.00
2018-11-26T10:31:07.512Z,100636.00
2018-11-26T10:33:37.771Z,100641.00
2018-11-26T10:36:07.457Z,100623.00
2018-11-26T10:38:37.224Z,100629.00
2018-11-26T10:41:07.042Z,100629.00
2018-11-26T10:43:37.051Z,100618.00
2018-11-26T10:46:06.714Z,100617.00
2018-11-26T10:48:36.794Z,100614.00
2018-11-26T10:51:06.668Z,100611.00
2018-11-26T10:53:36.434Z,100611.00
2018-11-26T10:56:07.338Z,100620.00
2018-11-26T10:58:37.493Z,100613.00
2018-11-26T11:01:12.788Z,100617.00
2018-11-26T11:03:42.733Z,100599.00
2018-11-26T11:06:12.474Z,100609.00
2018-11-26T11:08:42.244Z,100619.00
2018-11-26T11:11:11.978Z,100611.00
2018-11-26T11:13:41.343Z,100617.00
2018-11-26T11:16:11.169Z,100615.00
2018-11-26T11:18:41.069Z,100617.00
2018-11-26T11:21:11.044Z,100611.00
2018-11-26T11:23:41.686Z,100618.00
2018-11-26T11:26:11.312Z,100614.00
2018-11-26T11:28:41.011Z,100614.00
2018-11-26T11:31:10.910Z,100617.00
2018-11-26T11:33:41.100Z,100601.00
2018-11-26T11:36:11.084Z,100610.00
2018-11-26T11:38:41.172Z,100591.00
2018-11-26T11:41:11.260Z,100606.00
2018-11-26T11:43:41.063Z,100613.00
2018-11-26T11:46:11.227Z,100602.00
2018-11-26T11:48:41.105Z,100608.00
2018-11-26T11:51:13.297Z,100606.00
2018-11-26T11:53:44.203Z,100597.00
2018-11-26T11:56:14.915Z,100606.00
2018-11-26T11:58:46.537Z,100610.00
2018-11-26T12:01:16.705Z,100605.00
2018-11-26T12:03:46.695Z,100614.00
2018-11-26T12:06:16.832Z,100608.00
2018-11-26T12:08:46.789Z,100606.00
2018-11-26T12:11:16.513Z,100608.00
2018-11-26T12:13:46.637Z,100607.00
2018-11-26T12:16:16.951Z,100608.00
2018-11-26T12:18:46.867Z,100609.00
2018-11-26T12:21:16.667Z,100617.00
2018-11-26T12:23:46.563Z,100604.00
2018-11-26T12:26:16.845Z,100612.00
2018-11-26T12:28:46.781Z,100602.00
2018-11-26T12:31:18.569Z,100604.00
2018-11-26T12:33:48.748Z,100604.00
2018-11-26T12:36:18.792Z,100609.00
2018-11-26T12:38:48.990Z,100610.00
2018-11-26T12:41:19.777Z,100608.00
2018-11-26T12:43:49.876Z,100612.00
2018-11-26T12:46:20.207Z,100598.00
2018-11-26T12:48:50.338Z,100603.00
2018-11-26T12:51:20.942Z,100606.00
2018-11-26T12:53:50.921Z,100600.00
2018-11-26T12:56:21.051Z,100611.00
2018-11-26T12:58:51.013Z,100601.00
2018-11-26T13:01:21.399Z,100607.00
2018-11-26T13:03:51.637Z,100613.00
2018-11-26T13:06:21.331Z,100619.00
2018-11-26T13:08:52.929Z,100621.00
2018-11-26T13:11:22.985Z,100616.00
2018-11-26T13:13:53.232Z,100610.00
2018-11-26T13:16:22.904Z,100620.00
2018-11-26T13:18:53.360Z,100608.00
2018-11-26T13:21:23.331Z,100607.00
2018-11-26T13:23:54.124Z,100612.00
2018-11-26T13:26:24.094Z,100599.00
2018-11-26T13:28:53.612Z,100601.00
2018-11-26T13:31:23.450Z,100597.00
2018-11-26T13:33:53.330Z,100610.00
2018-11-26T13:36:23.472Z,100606.00
2018-11-26T13:38:53.486Z,100601.00
2018-11-26T13:41:23.373Z,100600.00
2018-11-26T13:43:53.592Z,100591.00
2018-11-26T13:46:23.638Z,100598.00
2018-11-26T13:48:53.612Z,100591.00
2018-11-26T13:51:23.582Z,100597.00
2018-11-26T13:53:54.129Z,100607.00
2018-11-26T13:56:23.694Z,100600.00
2018-11-26T13:58:53.446Z,100599.00
2018-11-26T14:01:23.515Z,100597.00
2018-11-26T14:03:53.786Z,100607.00
2018-11-26T14:06:24.217Z,100606.00
2018-11-26T14:08:53.666Z,100605.00
2018-11-26T14:11:23.873Z,100616.00
2018-11-26T14:13:53.497Z,100620.00
2018-11-26T14:16:23.789Z,100614.00
2018-11-26T14:18:53.684Z,100615.00
2018-11-26T14:21:23.333Z,100619.00
2018-11-26T14:23:53.085Z,100609.00
2018-11-26T14:26:23.647Z,100615.00
2018-11-26T14:28:53.461Z,100621.00
2018-11-26T14:31:23.572Z,100621.00
2018-11-26T14:33:53.459Z,100612.00
2018-11-26T14:36:22.973Z,100632.00
2018-11-26T14:38:52.851Z,100625.00
2018-11-26T14:41:23.383Z,100625.00
2018-11-26T14:43:53.371Z,100635.00
2018-11-26T14:46:23.913Z,100622.00
2018-11-26T14:48:53.493Z,100626.00
2018-11-26T14:51:22.925Z,100630.00
2018-11-26T14:53:52.899Z,100636.00
2018-11-26T14:56:22.590Z,100637.00
2018-11-26T14:58:51.934Z,100640.00
2018-11-26T15:01:22.431Z,100640.00
2018-11-26T15:03:51.741Z,100636.00
2018-11-26T15:06:21.197Z,100627.00
2018-11-26T15:08:50.401Z,100640.00
2018-11-26T15:11:26.244Z,100637.00
2018-11-26T15:13:55.735Z,100638.00
2018-11-26T15:16:25.176Z,100648.00
2018-11-26T15:18:54.217Z,100639.00
2018-11-26T15:21:24.075Z,100641.00
2018-11-26T15:23:53.171Z,100639.00
2018-11-26T15:26:22.201Z,100645.00
2018-11-26T15:28:51.569Z,100636.00
2018-11-26T15:31:21.217Z,100645.00
2018-11-26T15:33:50.417Z,100642.00
2018-11-26T15:36:19.535Z,100637.00
2018-11-26T15:38:49.217Z,100653.00
2018-11-26T15:41:18.872Z,100650.00
2018-11-26T15:43:49.348Z,100641.00
2018-11-26T15:46:19.539Z,100651.00
2018-11-26T15:48:48.860Z,100653.00
2018-11-26T15:51:18.067Z,100647.00
2018-11-26T15:53:47.179Z,100657.00
2018-11-26T15:56:16.623Z,100649.00
2018-11-26T15:58:46.632Z,100655.00
2018-11-26T16:01:15.781Z,100651.00
2018-11-26T16:03:46.714Z,100669.00
2018-11-26T16:06:15.805Z,100658.00
2018-11-26T16:08:45.051Z,100664.00
2018-11-26T16:11:14.519Z,100664.00
2018-11-26T16:13:43.634Z,100662.00
2018-11-26T16:16:12.970Z,100656.00
2018-11-26T16:18:43.123Z,100670.00
2018-11-26T16:21:13.639Z,100666.00
2018-11-26T16:23:43.943Z,100668.00
2018-11-26T16:26:13.177Z,100676.00
2018-11-26T16:28:42.461Z,100675.00
2018-11-26T16:31:11.708Z,100681.00
2018-11-26T16:33:41.509Z,100681.00
2018-11-26T16:36:10.745Z,100689.00
2018-11-26T16:38:40.158Z,100688.00
2018-11-26T16:41:09.363Z,100687.00
2018-11-26T16:43:38.621Z,100686.00
2018-11-26T16:46:08.887Z,100697.00
2018-11-26T16:48:38.059Z,100696.00
2018-11-26T16:51:07.229Z,100699.00
2018-11-26T16:53:36.365Z,100700.00
2018-11-26T16:56:05.533Z,100696.00
2018-11-26T16:58:34.795Z,100700.00
2018-11-26T17:01:04.390Z,100704.00
2018-11-26T17:03:33.583Z,100706.00
2018-11-26T17:06:03.297Z,100707.00
2018-11-26T17:08:32.394Z,100701.00
2018-11-26T17:11:01.480Z,100707.00
2018-11-26T17:13:30.789Z,100706.00
2018-11-26T17:16:01.015Z,100707.00
2018-11-26T17:18:30.147Z,100707.00
2018-11-26T17:20:59.622Z,100713.00
2018-11-26T17:23:28.828Z,100721.00
2018-11-26T17:25:58.019Z,100715.00
2018-11-26T17:28:27.277Z,100712.00
2018-11-26T17:30:56.801Z,100720.00
2018-11-26T17:33:25.968Z,100722.00
2018-11-26T17:35:55.406Z,100720.00
2018-11-26T17:38:24.548Z,100733.00
2018-11-26T17:40:54.168Z,100731.00
2018-11-26T17:43:23.542Z,100730.00
2018-11-26T17:45:52.688Z,100730.00
2018-11-26T17:48:23.161Z,100732.00
2018-11-26T17:50:51.546Z,100739.00
2018-11-26T17:53:21.740Z,100738.00
2018-11-26T17:55:53.179Z,100731.00
2018-11-26T17:58:23.920Z,100740.00
2018-11-26T18:00:59.917Z,100751.00
2018-11-26T18:03:29.282Z,100753.00
2018-11-26T18:05:58.726Z,100748.00
2018-11-26T18:08:27.996Z,100757.00
2018-11-26T18:10:57.459Z,100762.00
2018-11-26T18:13:26.968Z,100758.00
2018-11-26T18:15:56.498Z,100775.00
2018-11-26T18:18:26.600Z,100765.00
2018-11-26T18:20:56.101Z,100769.00
2018-11-26T18:23:25.593Z,100773.00
2018-11-26T18:25:55.158Z,100769.00
2018-11-26T18:28:24.326Z,100781.00
2018-11-26T18:30:53.913Z,100775.00
2018-11-26T18:33:23.122Z,100786.00
2018-11-26T18:35:52.310Z,100796.00
2018-11-26T18:38:21.583Z,100787.00
2018-11-26T18:40:51.942Z,100794.00
2018-11-26T18:43:21.426Z,100784.00
2018-11-26T18:45:50.748Z,100775.00
2018-11-26T18:48:20.330Z,100784.00
2018-11-26T18:50:50.228Z,100792.00
2018-11-26T18:53:19.702Z,100789.00
2018-11-26T18:55:48.928Z,100801.00
2018-11-26T18:58:18.096Z,100790.00
2018-11-26T19:00:52.709Z,100796.00
2018-11-26T19:03:22.758Z,100796.00
2018-11-26T19:05:55.435Z,100793.00
2018-11-26T19:08:24.650Z,100801.00
2018-11-26T19:11:00.273Z,100805.00
2018-11-26T19:13:34.436Z,100796.00
2018-11-26T19:16:07.930Z,100803.00
2018-11-26T19:18:37.197Z,100800.00
2018-11-26T19:21:07.100Z,100799.00
2018-11-26T19:23:36.700Z,100807.00
2018-11-26T19:26:06.213Z,100799.00
2018-11-26T19:28:35.446Z,100803.00
2018-11-26T19:31:04.932Z,100802.00
2018-11-26T19:33:34.594Z,100800.00
2018-11-26T19:36:03.761Z,100806.00
2018-11-26T19:38:32.974Z,100808.00
2018-11-26T19:41:02.653Z,100807.00
2018-11-26T19:43:32.257Z,100800.00
2018-11-26T19:46:02.184Z,100818.00
2018-11-26T19:48:31.795Z,100813.00
2018-11-26T19:51:01.478Z,100811.00
2018-11-26T19:53:31.241Z,100811.00
2018-11-26T19:56:00.671Z,100813.00
2018-11-26T19:58:30.939Z,100821.00
2018-11-26T20:01:00.337Z,100829.00
2018-11-26T20:03:38.946Z,100821.00
2018-11-26T20:06:11.137Z,100828.00
2018-11-26T20:08:41.395Z,100822.00
2018-11-26T20:11:11.589Z,100828.00
2018-11-26T20:13:41.218Z,100829.00
2018-11-26T20:16:14.387Z,100833.00
2018-11-26T20:18:44.900Z,100839.00
2018-11-26T20:21:14.219Z,100850.00
2018-11-26T20:23:44.454Z,100837.00
2018-11-26T20:26:14.777Z,100846.00
2018-11-26T20:28:44.847Z,100851.00
2018-11-26T20:31:14.305Z,100858.00
2018-11-26T20:33:44.192Z,100854.00
2018-11-26T20:36:14.971Z,100860.00
2018-11-26T20:38:44.466Z,100865.00
2018-11-26T20:41:14.529Z,100856.00
2018-11-26T20:43:44.152Z,100870.00
2018-11-26T20:46:13.939Z,100869.00
2018-11-26T20:48:43.377Z,100878.00
2018-11-26T20:51:13.214Z,100870.00
2018-11-26T20:53:43.606Z,100875.00
2018-11-26T20:56:14.956Z,100875.00
2018-11-26T20:58:44.771Z,100878.00
2018-11-26T21:01:14.214Z,100874.00
2018-11-26T21:03:43.633Z,100877.00
2018-11-26T21:06:13.474Z,100882.00
2018-11-26T21:08:43.102Z,100880.00
2018-11-26T21:11:12.684Z,100889.00
2018-11-26T21:13:42.011Z,100895.00
2018-11-26T21:16:11.494Z,100895.00
2018-11-26T21:18:41.401Z,100887.00
2018-11-26T21:21:11.298Z,100887.00
2018-11-26T21:23:40.767Z,100899.00
2018-11-26T21:26:10.260Z,100892.00
2018-11-26T21:28:40.199Z,100899.00
2018-11-26T21:31:09.965Z,100898.00
2018-11-26T21:33:39.431Z,100891.00
2018-11-26T21:36:09.075Z,100902.00
2018-11-26T21:38:40.325Z,100910.00
2018-11-26T21:41:09.784Z,100904.00
2018-11-26T21:43:39.139Z,100902.00
2018-11-26T21:46:09.204Z,100894.00
2018-11-26T21:48:39.738Z,100904.00
2018-11-26T21:51:09.694Z,100895.00
2018-11-26T21:53:39.148Z,100900.00
2018-11-26T21:56:08.575Z,100908.00
2018-11-26T21:58:39.221Z,100909.00
2018-11-26T22:01:09.898Z,100908.00
2018-11-26T22:03:39.670Z,100909.00
2018-11-26T22:06:09.952Z,100905.00
2018-11-26T22:08:39.571Z,100910.00
2018-11-26T22:11:09.156Z,100914.00
2018-11-26T22:13:38.607Z,100911.00
2018-11-26T22:16:08.316Z,100918.00
2018-11-26T22:18:37.825Z,100919.00
2018-11-26T22:21:07.535Z,100906.00
2018-11-26T22:23:37.233Z,100910.00
2018-11-26T22:26:06.713Z,100916.00
2018-11-26T22:28:36.612Z,100911.00
2018-11-26T22:31:06.150Z,100919.00
2018-11-26T22:33:35.489Z,100922.00
2018-11-26T22:36:05.626Z,100931.00
2018-11-26T22:38:35.126Z,100923.00
2018-11-26T22:41:04.358Z,100932.00
2018-11-26T22:43:33.514Z,100933.00
2018-11-26T22:46:02.764Z,100935.00
2018-11-26T22:48:32.278Z,100923.00
2018-11-26T22:51:01.516Z,100931.00
2018-11-26T22:53:30.683Z,100918.00
2018-11-26T22:56:00.082Z,100930.00
2018-11-26T22:58:29.755Z,100933.00
2018-11-26T23:00:59.073Z,100932.00
2018-11-26T23:03:28.414Z,100933.00
2018-11-26T23:05:57.648Z,100928.00
2018-11-26T23:08:26.958Z,100914.00
2018-11-26T23:10:56.212Z,100928.00
2018-11-26T23:13:25.626Z,100937.00
2018-11-26T23:15:55.020Z,100944.00
2018-11-26T23:18:24.259Z,100940.00
2018-11-26T23:20:54.116Z,100936.00
2018-11-26T23:23:23.638Z,100943.00
2018-11-26T23:25:53.346Z,100937.00
2018-11-26T23:28:23.544Z,100945.00
2018-11-26T23:30:52.768Z,100945.00
2018-11-26T23:33:22.238Z,100945.00
2018-11-26T23:35:51.662Z,100942.00
2018-11-26T23:38:21.232Z,100942.00
2018-11-26T23:40:50.714Z,100946.00
2018-11-26T23:43:20.018Z,100944.00
2018-11-26T23:45:49.421Z,100949.00
2018-11-26T23:48:18.926Z,100941.00
2018-11-26T23:50:48.100Z,100944.00
2018-11-26T23:53:17.390Z,100946.00
2018-11-26T23:55:50.810Z,100945.00
2018-11-26T23:58:20.456Z,100952.00
